sensor_id;sensor_type;location;lat;lon;timestamp;pressure;altitude;pressure_sealevel;temperature;humidity
72921;BME280;61064;51.654;5.476;2023-01-31T00:01:28;102506.59;;;3.25;81.76
72921;BME280;61064;51.654;5.476;2023-01-31T00:03:55;102499.34;;;3.21;81.76
72921;BME280;61064;51.654;5.476;2023-01-31T00:06:25;102453.63;;;2.91;81.86
72921;BME280;61064;51.654;5.476;2023-01-31T00:08:51;102470.25;;;3.05;82.00
72921;BME280;61064;51.654;5.476;2023-01-31T00:11:21;102538.69;;;3.48;82.12
72921;BME280;61064;51.654;5.476;2023-01-31T00:13:48;102493.41;;;3.11;81.86
72921;BME280;61064;51.654;5.476;2023-01-31T00:16:17;102535.28;;;3.35;82.16
72921;BME280;61064;51.654;5.476;2023-01-31T00:18:43;102489.66;;;3.07;82.10
72921;BME280;61064;51.654;5.476;2023-01-31T00:21:14;102487.94;;;3.08;81.98
72921;BME280;61064;51.654;5.476;2023-01-31T00:23:41;102483.31;;;3.04;81.86
72921;BME280;61064;51.654;5.476;2023-01-31T00:28:37;102545.81;;;3.35;82.10
72921;BME280;61064;51.654;5.476;2023-01-31T00:31:02;102575.03;;;3.40;82.08
72921;BME280;61064;51.654;5.476;2023-01-31T00:33:28;102509.50;;;3.02;81.93
72921;BME280;61064;51.654;5.476;2023-01-31T00:35:54;102491.31;;;2.92;82.16
72921;BME280;61064;51.654;5.476;2023-01-31T00:38:19;102467.63;;;2.77;82.37
72921;BME280;61064;51.654;5.476;2023-01-31T00:40:52;102463.16;;;2.76;82.28
72921;BME280;61064;51.654;5.476;2023-01-31T00:43:18;102486.06;;;2.92;82.20
72921;BME280;61064;51.654;5.476;2023-01-31T00:45:44;102499.38;;;3.08;82.44
72921;BME280;61064;51.654;5.476;2023-01-31T00:48:13;102504.72;;;3.10;82.46
72921;BME280;61064;51.654;5.476;2023-01-31T00:50:38;102494.53;;;3.01;82.67
72921;BME280;61064;51.654;5.476;2023-01-31T00:53:04;102539.06;;;3.26;82.56
72921;BME280;61064;51.654;5.476;2023-01-31T00:55:30;102501.72;;;3.04;82.43
72921;BME280;61064;51.654;5.476;2023-01-31T00:57:56;102546.44;;;3.31;82.55
72921;BME280;61064;51.654;5.476;2023-01-31T01:00:23;102499.88;;;3.03;82.41
72921;BME280;61064;51.654;5.476;2023-01-31T01:02:49;102505.75;;;3.12;82.81
72921;BME280;61064;51.654;5.476;2023-01-31T01:05:14;102517.63;;;3.20;82.75
72921;BME280;61064;51.654;5.476;2023-01-31T01:07:40;102529.25;;;3.23;82.49
72921;BME280;61064;51.654;5.476;2023-01-31T01:10:06;102424.28;;;2.71;82.70
72921;BME280;61064;51.654;5.476;2023-01-31T01:12:34;102529.03;;;3.33;82.67
72921;BME280;61064;51.654;5.476;2023-01-31T01:15:06;102489.97;;;3.12;82.75
72921;BME280;61064;51.654;5.476;2023-01-31T01:17:32;102474.09;;;3.10;82.71
72921;BME280;61064;51.654;5.476;2023-01-31T01:19:57;102456.75;;;2.99;82.88
72921;BME280;61064;51.654;5.476;2023-01-31T01:22:28;102408.25;;;2.81;82.83
72921;BME280;61064;51.654;5.476;2023-01-31T01:24:54;102425.88;;;2.97;82.87
72921;BME280;61064;51.654;5.476;2023-01-31T01:27:19;102443.97;;;3.05;82.85
72921;BME280;61064;51.654;5.476;2023-01-31T01:29:45;102474.84;;;3.22;82.83
72921;BME280;61064;51.654;5.476;2023-01-31T01:32:10;102439.69;;;3.07;82.79
72921;BME280;61064;51.654;5.476;2023-01-31T01:34:39;102407.94;;;2.89;83.07
72921;BME280;61064;51.654;5.476;2023-01-31T01:37:07;102407.41;;;2.95;82.97
72921;BME280;61064;51.654;5.476;2023-01-31T01:39:45;102385.53;;;2.81;82.58
72921;BME280;61064;51.654;5.476;2023-01-31T01:42:20;102405.59;;;2.94;82.98
72921;BME280;61064;51.654;5.476;2023-01-31T01:44:51;102392.88;;;2.87;82.65
72921;BME280;61064;51.654;5.476;2023-01-31T01:49:49;102458.53;;;3.28;83.11
72921;BME280;61064;51.654;5.476;2023-01-31T01:52:15;102387.63;;;2.87;82.97
72921;BME280;61064;51.654;5.476;2023-01-31T01:54:54;102455.59;;;3.23;83.16
72921;BME280;61064;51.654;5.476;2023-01-31T01:57:29;102459.25;;;3.25;82.76
72921;BME280;61064;51.654;5.476;2023-01-31T02:00:08;102403.78;;;2.93;83.06
72921;BME280;61064;51.654;5.476;2023-01-31T02:02:35;102436.38;;;3.10;83.09
72921;BME280;61064;51.654;5.476;2023-01-31T02:05:01;102499.09;;;3.46;83.18
72921;BME280;61064;51.654;5.476;2023-01-31T02:07:27;102450.44;;;3.25;83.41
72921;BME280;61064;51.654;5.476;2023-01-31T02:10:02;102454.53;;;3.20;83.34
72921;BME280;61064;51.654;5.476;2023-01-31T02:12:29;102426.56;;;3.07;82.95
72921;BME280;61064;51.654;5.476;2023-01-31T02:14:56;102501.22;;;3.52;83.20
72921;BME280;61064;51.654;5.476;2023-01-31T02:17:22;102498.41;;;3.49;83.39
72921;BME280;61064;51.654;5.476;2023-01-31T02:20:08;102472.16;;;3.35;83.48
72921;BME280;61064;51.654;5.476;2023-01-31T02:43:07;102485.78;;;3.58;83.30
72921;BME280;61064;51.654;5.476;2023-01-31T02:45:55;102499.44;;;3.65;83.57
72921;BME280;61064;51.654;5.476;2023-01-31T02:51:31;102448.84;;;3.42;83.35
72921;BME280;61064;51.654;5.476;2023-01-31T02:54:22;102467.66;;;3.62;83.54
72921;BME280;61064;51.654;5.476;2023-01-31T02:57:13;102401.81;;;3.18;83.59
72921;BME280;61064;51.654;5.476;2023-01-31T02:59:43;102399.03;;;3.15;83.54
72921;BME280;61064;51.654;5.476;2023-01-31T03:02:11;102431.25;;;3.41;83.43
72921;BME280;61064;51.654;5.476;2023-01-31T03:04:37;102425.81;;;3.38;83.63
72921;BME280;61064;51.654;5.476;2023-01-31T03:07:22;102418.63;;;3.35;83.88
72921;BME280;61064;51.654;5.476;2023-01-31T03:12:49;102481.53;;;3.74;83.56
72921;BME280;61064;51.654;5.476;2023-01-31T03:18:17;102381.69;;;3.19;83.64
72921;BME280;61064;51.654;5.476;2023-01-31T03:21:02;102483.09;;;3.71;84.05
72921;BME280;61064;51.654;5.476;2023-01-31T03:23:32;102410.72;;;3.20;83.98
72921;BME280;61064;51.654;5.476;2023-01-31T03:26:05;102487.44;;;3.70;84.08
72921;BME280;61064;51.654;5.476;2023-01-31T03:28:41;102381.25;;;3.11;83.82
72921;BME280;61064;51.654;5.476;2023-01-31T03:33:43;102444.97;;;3.50;84.19
72921;BME280;61064;51.654;5.476;2023-01-31T03:42:08;102464.31;;;3.65;84.58
72921;BME280;61064;51.654;5.476;2023-01-31T03:47:43;102391.69;;;3.24;84.69
72921;BME280;61064;51.654;5.476;2023-01-31T03:50:30;102384.31;;;3.19;84.40
72921;BME280;61064;51.654;5.476;2023-01-31T03:53:10;102395.59;;;3.31;84.40
72921;BME280;61064;51.654;5.476;2023-01-31T03:56:10;102430.91;;;3.49;84.36
72921;BME280;61064;51.654;5.476;2023-01-31T03:58:42;102369.88;;;3.12;84.42
72921;BME280;61064;51.654;5.476;2023-01-31T04:01:17;102414.38;;;3.37;84.54
72921;BME280;61064;51.654;5.476;2023-01-31T04:04:08;102398.97;;;3.28;84.93
72921;BME280;61064;51.654;5.476;2023-01-31T04:06:34;102368.91;;;3.10;84.46
72921;BME280;61064;51.654;5.476;2023-01-31T04:09:00;102461.19;;;3.57;85.07
72921;BME280;61064;51.654;5.476;2023-01-31T04:11:26;102425.16;;;3.42;84.86
72921;BME280;61064;51.654;5.476;2023-01-31T04:13:52;102369.81;;;3.11;84.80
72921;BME280;61064;51.654;5.476;2023-01-31T04:16:18;102388.72;;;3.33;84.65
72921;BME280;61064;51.654;5.476;2023-01-31T04:18:44;102432.72;;;3.50;84.92
72921;BME280;61064;51.654;5.476;2023-01-31T04:21:09;102400.41;;;3.38;85.23
72921;BME280;61064;51.654;5.476;2023-01-31T04:23:35;102344.66;;;3.01;85.12
72921;BME280;61064;51.654;5.476;2023-01-31T04:26:03;102376.81;;;3.25;85.32
72921;BME280;61064;51.654;5.476;2023-01-31T04:28:31;102403.16;;;3.40;85.41
72921;BME280;61064;51.654;5.476;2023-01-31T04:30:57;102324.84;;;3.06;85.39
72921;BME280;61064;51.654;5.476;2023-01-31T04:33:22;102342.63;;;3.10;85.35
72921;BME280;61064;51.654;5.476;2023-01-31T04:35:50;102360.66;;;3.19;85.17
72921;BME280;61064;51.654;5.476;2023-01-31T04:38:19;102335.69;;;3.12;85.50
72921;BME280;61064;51.654;5.476;2023-01-31T04:40:44;102419.63;;;3.52;85.34
72921;BME280;61064;51.654;5.476;2023-01-31T04:43:10;102387.91;;;3.49;85.26
72921;BME280;61064;51.654;5.476;2023-01-31T04:45:39;102411.13;;;3.70;85.34
72921;BME280;61064;51.654;5.476;2023-01-31T04:48:05;102341.09;;;3.28;85.12
72921;BME280;61064;51.654;5.476;2023-01-31T04:50:30;102381.19;;;3.54;85.38
72921;BME280;61064;51.654;5.476;2023-01-31T04:52:56;102350.59;;;3.41;85.42
72921;BME280;61064;51.654;5.476;2023-01-31T04:55:24;102363.56;;;3.53;85.33
72921;BME280;61064;51.654;5.476;2023-01-31T04:57:51;102340.81;;;3.39;85.34
72921;BME280;61064;51.654;5.476;2023-01-31T05:00:20;102354.50;;;3.48;85.55
72921;BME280;61064;51.654;5.476;2023-01-31T05:02:48;102352.53;;;3.44;85.39
72921;BME280;61064;51.654;5.476;2023-01-31T05:05:14;102337.19;;;3.37;85.36
72921;BME280;61064;51.654;5.476;2023-01-31T05:07:40;102353.59;;;3.47;85.46
72921;BME280;61064;51.654;5.476;2023-01-31T05:10:07;102308.25;;;3.22;85.48
72921;BME280;61064;51.654;5.476;2023-01-31T05:12:33;102363.41;;;3.50;85.89
72921;BME280;61064;51.654;5.476;2023-01-31T05:14:58;102398.06;;;3.72;85.99
72921;BME280;61064;51.654;5.476;2023-01-31T05:17:25;102309.59;;;3.30;85.73
72921;BME280;61064;51.654;5.476;2023-01-31T05:19:57;102322.41;;;3.39;85.92
72921;BME280;61064;51.654;5.476;2023-01-31T05:22:23;102329.75;;;3.44;86.09
72921;BME280;61064;51.654;5.476;2023-01-31T05:24:49;102352.50;;;3.58;85.88
72921;BME280;61064;51.654;5.476;2023-01-31T05:27:16;102389.41;;;3.74;86.10
72921;BME280;61064;51.654;5.476;2023-01-31T05:29:42;102306.06;;;3.29;86.10
72921;BME280;61064;51.654;5.476;2023-01-31T05:32:11;102330.91;;;3.49;85.67
72921;BME280;61064;51.654;5.476;2023-01-31T05:34:41;102312.78;;;3.39;85.90
72921;BME280;61064;51.654;5.476;2023-01-31T05:37:06;102363.38;;;3.64;85.81
72921;BME280;61064;51.654;5.476;2023-01-31T05:39:32;102383.97;;;3.86;85.69
72921;BME280;61064;51.654;5.476;2023-01-31T05:41:58;102294.28;;;3.38;85.95
72921;BME280;61064;51.654;5.476;2023-01-31T05:44:26;102287.19;;;3.37;85.70
72921;BME280;61064;51.654;5.476;2023-01-31T05:46:51;102331.16;;;3.68;85.81
72921;BME280;61064;51.654;5.476;2023-01-31T05:49:17;102297.69;;;3.51;85.96
72921;BME280;61064;51.654;5.476;2023-01-31T05:51:42;102328.81;;;3.73;85.88
72921;BME280;61064;51.654;5.476;2023-01-31T05:54:10;102326.91;;;3.70;85.77
72921;BME280;61064;51.654;5.476;2023-01-31T05:56:35;102318.75;;;3.66;85.75
72921;BME280;61064;51.654;5.476;2023-01-31T05:59:01;102301.94;;;3.64;85.86
72921;BME280;61064;51.654;5.476;2023-01-31T06:01:28;102351.72;;;3.90;86.07
72921;BME280;61064;51.654;5.476;2023-01-31T06:03:53;102264.88;;;3.45;86.07
72921;BME280;61064;51.654;5.476;2023-01-31T06:06:21;102271.22;;;3.48;86.06
72921;BME280;61064;51.654;5.476;2023-01-31T06:08:47;102377.94;;;4.03;85.76
72921;BME280;61064;51.654;5.476;2023-01-31T06:11:13;102260.44;;;3.44;86.06
72921;BME280;61064;51.654;5.476;2023-01-31T06:13:40;102338.94;;;3.82;85.94
72921;BME280;61064;51.654;5.476;2023-01-31T06:16:09;102296.88;;;3.67;85.63
72921;BME280;61064;51.654;5.476;2023-01-31T06:18:37;102344.38;;;3.99;85.74
72921;BME280;61064;51.654;5.476;2023-01-31T06:21:03;102258.97;;;3.49;85.67
72921;BME280;61064;51.654;5.476;2023-01-31T06:23:29;102267.13;;;3.53;85.79
72921;BME280;61064;51.654;5.476;2023-01-31T06:25:54;102272.38;;;3.53;85.84
72921;BME280;61064;51.654;5.476;2023-01-31T06:28:20;102303.81;;;3.81;85.69
72921;BME280;61064;51.654;5.476;2023-01-31T06:30:49;102323.03;;;3.95;86.14
72921;BME280;61064;51.654;5.476;2023-01-31T06:33:15;102324.56;;;3.91;85.95
72921;BME280;61064;51.654;5.476;2023-01-31T06:35:42;102351.16;;;4.10;85.79
72921;BME280;61064;51.654;5.476;2023-01-31T06:38:07;102338.06;;;4.12;85.75
72921;BME280;61064;51.654;5.476;2023-01-31T06:40:33;102300.81;;;3.90;85.77
72921;BME280;61064;51.654;5.476;2023-01-31T06:43:00;102302.56;;;4.05;85.72
72921;BME280;61064;51.654;5.476;2023-01-31T06:45:26;102273.59;;;3.89;85.79
72921;BME280;61064;51.654;5.476;2023-01-31T06:47:51;102291.84;;;4.02;85.70
72921;BME280;61064;51.654;5.476;2023-01-31T06:50:24;102299.75;;;4.02;85.51
72921;BME280;61064;51.654;5.476;2023-01-31T06:52:50;102281.63;;;3.92;85.58
72921;BME280;61064;51.654;5.476;2023-01-31T06:55:16;102279.00;;;3.92;85.54
72921;BME280;61064;51.654;5.476;2023-01-31T06:57:48;102334.22;;;4.22;85.69
72921;BME280;61064;51.654;5.476;2023-01-31T07:00:14;102339.06;;;4.30;85.46
72921;BME280;61064;51.654;5.476;2023-01-31T07:02:44;102323.78;;;4.23;85.55
72921;BME280;61064;51.654;5.476;2023-01-31T07:05:10;102298.97;;;4.19;85.40
72921;BME280;61064;51.654;5.476;2023-01-31T07:07:35;102333.91;;;4.32;85.57
72921;BME280;61064;51.654;5.476;2023-01-31T07:10:03;102325.91;;;4.30;85.81
72921;BME280;61064;51.654;5.476;2023-01-31T07:12:29;102325.09;;;4.31;85.25
72921;BME280;61064;51.654;5.476;2023-01-31T07:14:54;102324.25;;;4.32;85.60
72921;BME280;61064;51.654;5.476;2023-01-31T07:17:20;102314.63;;;4.33;85.44
72921;BME280;61064;51.654;5.476;2023-01-31T07:19:46;102273.94;;;4.11;85.82
72921;BME280;61064;51.654;5.476;2023-01-31T07:22:11;102299.66;;;4.32;85.64
72921;BME280;61064;51.654;5.476;2023-01-31T07:24:37;102252.69;;;4.08;85.49
72921;BME280;61064;51.654;5.476;2023-01-31T07:27:04;102252.22;;;4.15;85.36
72921;BME280;61064;51.654;5.476;2023-01-31T07:29:30;102240.88;;;4.16;85.37
72921;BME280;61064;51.654;5.476;2023-01-31T07:31:55;102219.69;;;3.99;85.15
72921;BME280;61064;51.654;5.476;2023-01-31T07:34:22;102224.31;;;4.03;85.57
72921;BME280;61064;51.654;5.476;2023-01-31T07:36:48;102247.69;;;4.13;85.49
72921;BME280;61064;51.654;5.476;2023-01-31T07:39:14;102271.09;;;4.23;85.63
72921;BME280;61064;51.654;5.476;2023-01-31T07:41:40;102244.88;;;4.10;85.41
72921;BME280;61064;51.654;5.476;2023-01-31T07:44:05;102281.69;;;4.41;85.52
72921;BME280;61064;51.654;5.476;2023-01-31T07:46:33;102277.91;;;4.52;85.53
72921;BME280;61064;51.654;5.476;2023-01-31T07:48:59;102280.81;;;4.56;85.27
72921;BME280;61064;51.654;5.476;2023-01-31T07:51:25;102240.88;;;4.33;85.12
72921;BME280;61064;51.654;5.476;2023-01-31T07:53:50;102240.88;;;4.33;85.32
72921;BME280;61064;51.654;5.476;2023-01-31T07:56:18;102271.56;;;4.48;85.31
72921;BME280;61064;51.654;5.476;2023-01-31T07:58:45;102295.28;;;4.65;85.38
72921;BME280;61064;51.654;5.476;2023-01-31T08:03:59;102292.25;;;4.73;85.33
72921;BME280;61064;51.654;5.476;2023-01-31T08:06:27;102281.13;;;4.79;85.17
72921;BME280;61064;51.654;5.476;2023-01-31T08:08:54;102266.53;;;4.69;85.05
72921;BME280;61064;51.654;5.476;2023-01-31T08:11:22;102199.03;;;4.39;84.81
72921;BME280;61064;51.654;5.476;2023-01-31T08:13:48;102165.63;;;4.22;85.23
72921;BME280;61064;51.654;5.476;2023-01-31T08:16:13;102201.75;;;4.40;84.99
72921;BME280;61064;51.654;5.476;2023-01-31T08:18:39;102184.44;;;4.29;85.16
72921;BME280;61064;51.654;5.476;2023-01-31T08:21:07;102272.31;;;4.78;85.06
72921;BME280;61064;51.654;5.476;2023-01-31T08:23:35;102260.19;;;4.82;85.04
72921;BME280;61064;51.654;5.476;2023-01-31T08:26:22;102265.91;;;4.91;85.23
72921;BME280;61064;51.654;5.476;2023-01-31T08:28:49;102231.63;;;4.73;85.03
72921;BME280;61064;51.654;5.476;2023-01-31T08:31:18;102206.72;;;4.68;84.92
72921;BME280;61064;51.654;5.476;2023-01-31T08:33:44;102252.59;;;4.88;85.00
72921;BME280;61064;51.654;5.476;2023-01-31T08:36:17;102248.31;;;4.90;84.72
72921;BME280;61064;51.654;5.476;2023-01-31T08:38:46;102220.41;;;4.77;84.66
72921;BME280;61064;51.654;5.476;2023-01-31T08:41:13;102174.63;;;4.59;84.62
72921;BME280;61064;51.654;5.476;2023-01-31T08:43:39;102246.13;;;4.99;84.67
72921;BME280;61064;51.654;5.476;2023-01-31T08:46:05;102247.19;;;5.02;84.93
72921;BME280;61064;51.654;5.476;2023-01-31T08:48:34;102223.66;;;4.89;84.84
72921;BME280;61064;51.654;5.476;2023-01-31T08:51:04;102172.94;;;4.77;84.63
72921;BME280;61064;51.654;5.476;2023-01-31T08:53:30;102227.47;;;5.12;84.66
72921;BME280;61064;51.654;5.476;2023-01-31T08:56:04;102199.72;;;5.02;84.73
72921;BME280;61064;51.654;5.476;2023-01-31T08:58:31;102211.78;;;5.15;84.93
72921;BME280;61064;51.654;5.476;2023-01-31T09:01:05;102221.81;;;5.22;84.75
72921;BME280;61064;51.654;5.476;2023-01-31T09:03:31;102217.50;;;5.24;84.50
72921;BME280;61064;51.654;5.476;2023-01-31T09:05:59;102222.19;;;5.30;84.65
72921;BME280;61064;51.654;5.476;2023-01-31T09:08:25;102225.00;;;5.33;84.46
72921;BME280;61064;51.654;5.476;2023-01-31T09:10:54;102223.56;;;5.39;84.73
72921;BME280;61064;51.654;5.476;2023-01-31T09:13:20;102211.81;;;5.33;84.44
72921;BME280;61064;51.654;5.476;2023-01-31T09:15:48;102196.72;;;5.30;84.35
72921;BME280;61064;51.654;5.476;2023-01-31T09:18:21;102177.50;;;5.33;84.15
72921;BME280;61064;51.654;5.476;2023-01-31T09:20:46;102172.31;;;5.34;84.74
72921;BME280;61064;51.654;5.476;2023-01-31T09:23:11;102180.88;;;5.48;84.38
72921;BME280;61064;51.654;5.476;2023-01-31T09:25:37;102189.91;;;5.53;84.24
72921;BME280;61064;51.654;5.476;2023-01-31T09:28:02;102200.69;;;5.58;84.55
72921;BME280;61064;51.654;5.476;2023-01-31T09:30:28;102185.63;;;5.55;84.14
72921;BME280;61064;51.654;5.476;2023-01-31T09:32:53;102201.16;;;5.67;84.52
72921;BME280;61064;51.654;5.476;2023-01-31T09:35:19;102201.50;;;5.74;84.49
72921;BME280;61064;51.654;5.476;2023-01-31T09:37:45;102206.25;;;5.81;84.39
72921;BME280;61064;51.654;5.476;2023-01-31T09:40:18;102206.66;;;5.89;84.24
72921;BME280;61064;51.654;5.476;2023-01-31T09:42:46;102181.56;;;5.81;83.99
72921;BME280;61064;51.654;5.476;2023-01-31T09:45:27;102204.34;;;5.97;84.10
72921;BME280;61064;51.654;5.476;2023-01-31T09:47:55;102185.72;;;5.94;83.96
72921;BME280;61064;51.654;5.476;2023-01-31T09:50:39;102157.75;;;5.79;84.20
72921;BME280;61064;51.654;5.476;2023-01-31T09:53:11;102175.44;;;6.00;83.88
72921;BME280;61064;51.654;5.476;2023-01-31T09:58:35;102189.50;;;6.18;84.01
72921;BME280;61064;51.654;5.476;2023-01-31T10:01:27;102190.53;;;6.21;83.96
72921;BME280;61064;51.654;5.476;2023-01-31T10:06:46;102175.78;;;6.26;83.66
72921;BME280;61064;51.654;5.476;2023-01-31T10:09:25;102178.22;;;6.22;83.89
72921;BME280;61064;51.654;5.476;2023-01-31T10:12:03;102192.91;;;6.35;83.69
72921;BME280;61064;51.654;5.476;2023-01-31T10:17:36;102192.31;;;6.42;83.86
72921;BME280;61064;51.654;5.476;2023-01-31T10:22:58;102187.03;;;6.42;83.78
72921;BME280;61064;51.654;5.476;2023-01-31T10:25:33;102199.50;;;6.44;83.57
72921;BME280;61064;51.654;5.476;2023-01-31T10:28:20;102180.59;;;6.35;83.58
72921;BME280;61064;51.654;5.476;2023-01-31T10:36:02;102197.84;;;6.46;83.97
72921;BME280;61064;51.654;5.476;2023-01-31T10:38:33;102187.47;;;6.51;83.74
72921;BME280;61064;51.654;5.476;2023-01-31T10:41:17;102174.94;;;6.47;83.92
72921;BME280;61064;51.654;5.476;2023-01-31T10:43:58;102168.59;;;6.43;83.76
72921;BME280;61064;51.654;5.476;2023-01-31T10:46:24;102177.72;;;6.50;83.84
72921;BME280;61064;51.654;5.476;2023-01-31T10:48:50;102178.75;;;6.53;84.14
72921;BME280;61064;51.654;5.476;2023-01-31T10:54:50;102167.69;;;6.62;83.99
72921;BME280;61064;51.654;5.476;2023-01-31T10:56:56;102145.66;;;6.42;83.69
72921;BME280;61064;51.654;5.476;2023-01-31T10:59:25;102152.31;;;6.53;83.91
72921;BME280;61064;51.654;5.476;2023-01-31T11:01:53;102149.84;;;6.58;84.19
72921;BME280;61064;51.654;5.476;2023-01-31T11:04:29;102164.31;;;6.66;84.03
72921;BME280;61064;51.654;5.476;2023-01-31T11:06:57;102157.50;;;6.71;84.28
72921;BME280;61064;51.654;5.476;2023-01-31T11:09:28;102154.59;;;6.65;83.55
72921;BME280;61064;51.654;5.476;2023-01-31T11:12:00;102131.63;;;6.64;83.85
72921;BME280;61064;51.654;5.476;2023-01-31T11:14:26;102153.44;;;6.79;83.90
72921;BME280;61064;51.654;5.476;2023-01-31T11:17:16;102122.13;;;6.69;84.10
72921;BME280;61064;51.654;5.476;2023-01-31T11:19:48;102118.09;;;6.77;84.11
72921;BME280;61064;51.654;5.476;2023-01-31T11:22:28;102120.84;;;6.80;83.97
72921;BME280;61064;51.654;5.476;2023-01-31T11:24:56;102101.31;;;6.77;83.89
72921;BME280;61064;51.654;5.476;2023-01-31T11:28:02;102136.31;;;6.92;84.08
72921;BME280;61064;51.654;5.476;2023-01-31T11:30:30;102126.72;;;6.94;83.88
72921;BME280;61064;51.654;5.476;2023-01-31T11:32:56;102106.66;;;6.78;83.81
72921;BME280;61064;51.654;5.476;2023-01-31T11:35:34;102123.81;;;6.88;84.03
72921;BME280;61064;51.654;5.476;2023-01-31T11:38:01;102134.00;;;6.99;84.05
72921;BME280;61064;51.654;5.476;2023-01-31T11:40:35;102117.97;;;6.95;84.28
72921;BME280;61064;51.654;5.476;2023-01-31T11:43:03;102116.25;;;6.97;84.10
72921;BME280;61064;51.654;5.476;2023-01-31T11:45:35;102127.06;;;7.01;84.00
72921;BME280;61064;51.654;5.476;2023-01-31T11:48:13;102113.59;;;6.97;84.03
72921;BME280;61064;51.654;5.476;2023-01-31T11:50:50;102124.59;;;7.06;83.96
72921;BME280;61064;51.654;5.476;2023-01-31T11:54:02;102119.31;;;7.06;84.07
72921;BME280;61064;51.654;5.476;2023-01-31T11:56:17;102113.16;;;7.07;83.89
72921;BME280;61064;51.654;5.476;2023-01-31T11:58:45;102083.41;;;6.92;84.04
72921;BME280;61064;51.654;5.476;2023-01-31T12:01:17;102109.22;;;7.18;83.94
72921;BME280;61064;51.654;5.476;2023-01-31T12:03:47;102092.75;;;7.04;84.19
72921;BME280;61064;51.654;5.476;2023-01-31T12:06:26;102101.28;;;7.18;84.00
72921;BME280;61064;51.654;5.476;2023-01-31T12:08:53;102098.31;;;7.10;83.96
72921;BME280;61064;51.654;5.476;2023-01-31T12:13:49;102073.50;;;7.08;84.03
72921;BME280;61064;51.654;5.476;2023-01-31T12:16:24;102080.09;;;7.18;84.08
72921;BME280;61064;51.654;5.476;2023-01-31T12:25:03;102107.47;;;7.41;84.35
72921;BME280;61064;51.654;5.476;2023-01-31T12:27:42;102109.25;;;7.42;84.31
72921;BME280;61064;51.654;5.476;2023-01-31T12:35:41;102098.63;;;7.40;84.93
72921;BME280;61064;51.654;5.476;2023-01-31T12:38:33;102103.88;;;7.39;84.97
72921;BME280;61064;51.654;5.476;2023-01-31T12:52:10;102084.06;;;7.29;85.64
72921;BME280;61064;51.654;5.476;2023-01-31T13:00:54;102087.97;;;7.39;86.31
72921;BME280;61064;51.654;5.476;2023-01-31T13:03:35;102096.00;;;7.40;86.20
72921;BME280;61064;51.654;5.476;2023-01-31T13:06:07;102083.59;;;7.39;86.37
72921;BME280;61064;51.654;5.476;2023-01-31T13:08:43;102078.16;;;7.36;87.07
72921;BME280;61064;51.654;5.476;2023-01-31T13:11:18;102074.00;;;7.43;86.53
72921;BME280;61064;51.654;5.476;2023-01-31T13:13:49;102063.25;;;7.38;86.69
72921;BME280;61064;51.654;5.476;2023-01-31T13:16:20;102079.22;;;7.41;86.83
72921;BME280;61064;51.654;5.476;2023-01-31T13:18:51;102083.16;;;7.51;87.22
72921;BME280;61064;51.654;5.476;2023-01-31T13:21:24;102080.56;;;7.52;86.91
72921;BME280;61064;51.654;5.476;2023-01-31T13:24:01;102083.25;;;7.54;87.05
72921;BME280;61064;51.654;5.476;2023-01-31T13:26:30;102077.81;;;7.49;86.88
72921;BME280;61064;51.654;5.476;2023-01-31T13:29:05;102077.06;;;7.53;86.86
72921;BME280;61064;51.654;5.476;2023-01-31T13:31:45;102042.13;;;7.40;86.84
72921;BME280;61064;51.654;5.476;2023-01-31T13:34:25;102041.41;;;7.44;87.41
72921;BME280;61064;51.654;5.476;2023-01-31T13:37:05;102041.69;;;7.51;86.96
72921;BME280;61064;51.654;5.476;2023-01-31T13:39:34;102076.88;;;7.71;86.89
72921;BME280;61064;51.654;5.476;2023-01-31T13:42:01;101999.53;;;7.34;86.96
72921;BME280;61064;51.654;5.476;2023-01-31T13:44:27;102015.75;;;7.43;86.95
72921;BME280;61064;51.654;5.476;2023-01-31T13:47:00;102064.81;;;7.79;87.20
72921;BME280;61064;51.654;5.476;2023-01-31T13:49:45;102063.06;;;7.80;87.08
72921;BME280;61064;51.654;5.476;2023-01-31T13:52:19;102013.41;;;7.50;87.03
72921;BME280;61064;51.654;5.476;2023-01-31T13:54:52;102031.97;;;7.74;87.01
72921;BME280;61064;51.654;5.476;2023-01-31T13:57:28;102059.09;;;7.92;87.25
72921;BME280;61064;51.654;5.476;2023-01-31T14:00:08;102052.88;;;7.90;87.09
72921;BME280;61064;51.654;5.476;2023-01-31T14:03:02;102038.81;;;7.93;86.91
72921;BME280;61064;51.654;5.476;2023-01-31T14:11:43;102002.00;;;7.77;86.73
72921;BME280;61064;51.654;5.476;2023-01-31T14:16:40;102069.69;;;8.16;86.64
72921;BME280;61064;51.654;5.476;2023-01-31T14:21:54;102090.16;;;8.20;86.84
72921;BME280;61064;51.654;5.476;2023-01-31T14:29:44;102088.25;;;8.16;86.37
72921;BME280;61064;51.654;5.476;2023-01-31T14:38:14;102098.84;;;8.16;86.40
72921;BME280;61064;51.654;5.476;2023-01-31T14:48:55;102116.81;;;8.23;86.35
72921;BME280;61064;51.654;5.476;2023-01-31T14:57:14;102131.97;;;8.27;86.37
72921;BME280;61064;51.654;5.476;2023-01-31T15:05:06;102116.19;;;8.30;86.34
72921;BME280;61064;51.654;5.476;2023-01-31T15:07:35;102122.50;;;8.34;86.10
72921;BME280;61064;51.654;5.476;2023-01-31T15:10:02;102135.94;;;8.39;86.19
72921;BME280;61064;51.654;5.476;2023-01-31T15:18:00;102141.41;;;8.43;86.00
72921;BME280;61064;51.654;5.476;2023-01-31T15:20:40;102138.59;;;8.39;86.00
72921;BME280;61064;51.654;5.476;2023-01-31T15:23:15;102138.75;;;8.43;85.55
72921;BME280;61064;51.654;5.476;2023-01-31T15:25:43;102140.41;;;8.40;85.86
72921;BME280;61064;51.654;5.476;2023-01-31T15:28:15;102128.94;;;8.41;85.62
72921;BME280;61064;51.654;5.476;2023-01-31T15:30:42;102135.03;;;8.38;85.64
72921;BME280;61064;51.654;5.476;2023-01-31T15:33:14;102132.44;;;8.40;85.79
72921;BME280;61064;51.654;5.476;2023-01-31T15:35:51;102131.38;;;8.34;85.71
72921;BME280;61064;51.654;5.476;2023-01-31T15:38:34;102136.78;;;8.38;85.76
72921;BME280;61064;51.654;5.476;2023-01-31T15:41:15;102147.38;;;8.38;85.61
72921;BME280;61064;51.654;5.476;2023-01-31T15:43:41;102146.31;;;8.32;85.60